createdAt,value
2019-04-06T00:01:08.930Z,88.70
2019-04-06T00:03:37.354Z,88.40
2019-04-06T00:06:05.835Z,88.70
2019-04-06T00:08:34.281Z,88.90
2019-04-06T00:11:02.960Z,88.60
2019-04-06T00:13:31.635Z,88.30
2019-04-06T00:16:00.062Z,88.10
2019-04-06T00:18:28.477Z,88.30
2019-04-06T00:20:56.902Z,88.10
2019-04-06T00:23:25.318Z,88.20
2019-04-06T00:25:53.761Z,88.40
2019-04-06T00:28:22.170Z,88.10
2019-04-06T00:30:58.153Z,88.10
2019-04-06T00:33:28.216Z,88.20
2019-04-06T00:35:56.767Z,87.80
2019-04-06T00:38:25.185Z,87.30
2019-04-06T00:40:53.858Z,87.50
2019-04-06T00:43:22.276Z,87.40
2019-04-06T00:45:50.701Z,87.70
2019-04-06T00:48:19.130Z,88.10
2019-04-06T00:50:47.623Z,87.20
2019-04-06T00:53:16.057Z,86.70
2019-04-06T00:55:55.141Z,86.40
2019-04-06T00:58:14.893Z,86.50
2019-04-06T01:00:43.394Z,86.40
2019-04-06T01:03:11.811Z,86.10
2019-04-06T01:05:40.246Z,86.50
2019-04-06T01:08:08.733Z,86.70
2019-04-06T01:10:37.178Z,85.80
2019-04-06T01:13:05.633Z,85.70
2019-04-06T01:15:34.257Z,86.40
2019-04-06T01:18:02.677Z,86.40
2019-04-06T01:20:31.354Z,86.30
2019-04-06T01:23:00.015Z,86.30
2019-04-06T01:25:28.436Z,86.30
2019-04-06T01:27:57.118Z,86.70
2019-04-06T01:30:25.652Z,87.00
2019-04-06T01:32:54.299Z,87.40
2019-04-06T01:35:22.756Z,88.00
2019-04-06T01:37:51.565Z,89.20
2019-04-06T01:40:20.301Z,89.60
2019-04-06T01:42:48.720Z,90.10
2019-04-06T01:45:17.155Z,90.20
2019-04-06T01:47:45.570Z,90.30
2019-04-06T01:50:14.170Z,90.50
2019-04-06T01:52:42.597Z,90.70
2019-04-06T01:55:11.093Z,91.00
2019-04-06T01:57:39.729Z,91.00
2019-04-06T02:00:10.401Z,91.20
2019-04-06T02:02:40.450Z,91.00
2019-04-06T02:05:09.272Z,91.00
2019-04-06T02:07:37.714Z,91.00
2019-04-06T02:10:07.880Z,90.90
2019-04-06T02:12:36.321Z,90.90
2019-04-06T02:15:06.405Z,90.80
2019-04-06T02:17:35.053Z,90.70
2019-04-06T02:20:04.853Z,90.50
2019-04-06T02:22:33.415Z,90.40
2019-04-06T02:25:01.842Z,90.30
2019-04-06T02:27:30.691Z,90.10
2019-04-06T02:30:19.070Z,90.10
2019-04-06T02:33:07.481Z,90.00
2019-04-06T02:35:46.517Z,89.70
2019-04-06T02:38:25.663Z,89.50
2019-04-06T02:40:56.036Z,89.40
2019-04-06T02:43:26.079Z,89.90
2019-04-06T02:45:54.516Z,89.10
2019-04-06T02:48:22.940Z,88.90
2019-04-06T02:50:51.430Z,88.70
2019-04-06T02:53:19.854Z,88.60
2019-04-06T02:55:48.519Z,88.50
2019-04-06T02:58:17.246Z,88.60
2019-04-06T03:00:45.725Z,89.40
2019-04-06T03:03:14.466Z,89.50
2019-04-06T03:05:47.603Z,89.80
2019-04-06T03:08:16.040Z,90.10
2019-04-06T03:10:44.519Z,90.40
2019-04-06T03:13:13.256Z,90.60
2019-04-06T03:15:41.734Z,90.80
2019-04-06T03:18:10.226Z,90.70
2019-04-06T03:20:38.642Z,90.70
2019-04-06T03:23:07.491Z,90.70
2019-04-06T03:25:35.964Z,90.70
2019-04-06T03:28:04.386Z,90.80
2019-04-06T03:30:32.817Z,90.70
2019-04-06T03:33:01.317Z,90.60
2019-04-06T03:35:29.864Z,90.60
2019-04-06T03:37:58.337Z,90.60
2019-04-06T03:40:26.749Z,90.60
2019-04-06T03:42:55.431Z,90.60
2019-04-06T03:45:23.850Z,90.50
2019-04-06T03:47:52.523Z,90.40
2019-04-06T03:50:21.225Z,90.40
2019-04-06T03:52:49.709Z,90.30
2019-04-06T03:55:18.218Z,90.20
2019-04-06T03:57:46.634Z,90.10
2019-04-06T04:00:15.291Z,90.00
2019-04-06T04:02:43.809Z,90.00
2019-04-06T04:05:12.288Z,90.20
2019-04-06T04:07:40.718Z,90.20
2019-04-06T04:10:09.666Z,90.20
2019-04-06T04:12:38.099Z,90.10
2019-04-06T04:15:07.070Z,90.00
2019-04-06T04:17:35.863Z,89.60
2019-04-06T04:20:06.790Z,89.60
2019-04-06T04:22:35.439Z,89.50
2019-04-06T04:25:04.952Z,89.80
2019-04-06T04:27:33.414Z,89.90
2019-04-06T04:30:01.863Z,89.80
2019-04-06T04:32:30.338Z,89.80
2019-04-06T04:34:58.759Z,89.90
2019-04-06T04:37:27.376Z,89.90
2019-04-06T04:39:55.817Z,89.70
2019-04-06T04:42:24.700Z,89.80
2019-04-06T04:44:53.136Z,89.90
2019-04-06T04:47:21.797Z,89.80
2019-04-06T04:49:50.282Z,89.80
2019-04-06T04:52:18.981Z,89.90
2019-04-06T04:54:47.710Z,89.70
2019-04-06T04:57:16.114Z,89.80
2019-04-06T04:59:44.755Z,89.50
2019-04-06T05:02:13.214Z,89.20
2019-04-06T05:04:41.646Z,89.20
2019-04-06T05:07:10.142Z,89.10
2019-04-06T05:09:39.007Z,89.10
2019-04-06T05:12:07.909Z,88.80
2019-04-06T05:15:02.411Z,88.70
2019-04-06T05:17:31.190Z,88.70
2019-04-06T05:19:59.682Z,88.50
2019-04-06T05:22:28.276Z,88.20
2019-04-06T05:24:56.921Z,88.00
2019-04-06T05:27:25.990Z,88.00
2019-04-06T05:29:54.512Z,88.10
2019-04-06T05:32:22.997Z,88.00
2019-04-06T05:34:51.677Z,87.80
2019-04-06T05:37:20.418Z,87.40
2019-04-06T05:39:48.881Z,87.70
2019-04-06T05:42:17.289Z,87.70
2019-04-06T05:44:45.979Z,87.30
2019-04-06T05:47:14.425Z,87.20
2019-04-06T05:49:42.893Z,86.90
2019-04-06T05:52:11.654Z,86.80
2019-04-06T05:54:40.271Z,87.10
2019-04-06T05:57:08.978Z,86.50
2019-04-06T05:59:40.330Z,86.40
2019-04-06T06:02:09.911Z,86.00
2019-04-06T06:04:40.183Z,85.60
2019-04-06T06:07:08.097Z,85.00
2019-04-06T06:09:36.525Z,84.50
2019-04-06T06:12:05.013Z,84.30
2019-04-06T06:14:33.445Z,84.00
2019-04-06T06:17:01.857Z,84.30
2019-04-06T06:19:30.287Z,84.40
2019-04-06T06:21:58.697Z,83.70
2019-04-06T06:24:27.503Z,83.30
2019-04-06T06:26:55.973Z,82.70
2019-04-06T06:29:24.389Z,82.60
2019-04-06T06:31:53.063Z,82.20
2019-04-06T06:34:21.509Z,81.40
2019-04-06T06:36:49.938Z,80.90
2019-04-06T06:39:18.578Z,80.80
2019-04-06T06:41:47.045Z,80.50
2019-04-06T06:44:15.824Z,80.30
2019-04-06T06:46:45.129Z,80.50
2019-04-06T06:49:13.552Z,80.70
2019-04-06T06:51:41.979Z,78.60
2019-04-06T06:54:10.393Z,78.10
2019-04-06T06:56:38.836Z,77.60
2019-04-06T06:59:07.242Z,77.70
2019-04-06T07:01:35.670Z,78.10
2019-04-06T07:04:04.546Z,77.90
2019-04-06T07:06:33.085Z,77.50
2019-04-06T07:09:01.631Z,77.70
2019-04-06T07:11:30.101Z,77.10
2019-04-06T07:13:58.639Z,76.40
2019-04-06T07:16:27.086Z,76.40
2019-04-06T07:18:55.517Z,75.80
2019-04-06T07:21:23.949Z,75.00
2019-04-06T07:23:52.361Z,73.80
2019-04-06T07:26:20.798Z,73.90
2019-04-06T07:28:49.211Z,74.00
2019-04-06T07:31:17.648Z,73.30
2019-04-06T07:33:46.057Z,72.70
2019-04-06T07:36:14.481Z,72.70
2019-04-06T07:38:43.153Z,72.30
2019-04-06T07:41:11.940Z,71.80
2019-04-06T07:43:40.586Z,71.50
2019-04-06T07:46:09.014Z,71.90
2019-04-06T07:48:37.685Z,71.80
2019-04-06T07:51:06.117Z,70.80
2019-04-06T07:53:34.890Z,69.80
2019-04-06T07:56:03.534Z,69.30
2019-04-06T07:58:31.992Z,69.30
2019-04-06T08:01:00.417Z,68.60
2019-04-06T08:03:28.829Z,67.70
2019-04-06T08:05:57.256Z,66.90
2019-04-06T08:08:27.540Z,66.60
2019-04-06T08:10:56.081Z,65.50
2019-04-06T08:13:24.493Z,65.40
2019-04-06T08:15:53.230Z,65.50
2019-04-06T08:18:22.179Z,64.30
2019-04-06T08:20:50.901Z,63.80
2019-04-06T08:23:19.342Z,63.60
2019-04-06T08:25:47.756Z,62.50
2019-04-06T08:28:16.206Z,61.70
2019-04-06T08:30:46.534Z,61.10
2019-04-06T08:33:14.787Z,61.20
2019-04-06T08:35:43.209Z,60.70
2019-04-06T08:38:11.890Z,59.80
2019-04-06T08:40:40.311Z,58.70
2019-04-06T08:43:08.741Z,58.50
2019-04-06T08:45:37.161Z,57.90
2019-04-06T08:48:05.590Z,58.00
2019-04-06T08:50:34.013Z,57.50
2019-04-06T08:53:02.448Z,58.00
2019-04-06T08:55:31.198Z,57.50
2019-04-06T08:57:59.610Z,56.90
2019-04-06T09:00:28.291Z,55.90
2019-04-06T09:02:56.943Z,56.20
2019-04-06T09:05:25.658Z,54.70
2019-04-06T09:07:54.085Z,52.70
2019-04-06T09:10:22.510Z,50.30
2019-04-06T09:12:50.947Z,50.70
2019-04-06T09:15:20.111Z,49.80
2019-04-06T09:17:48.539Z,50.30
2019-04-06T09:20:17.405Z,48.90
2019-04-06T09:22:45.887Z,49.20
2019-04-06T09:25:14.301Z,48.70
2019-04-06T09:27:42.738Z,48.30
2019-04-06T09:30:11.454Z,49.80
2019-04-06T09:32:39.886Z,47.10
2019-04-06T09:35:08.469Z,38.50
2019-04-06T09:37:37.177Z,32.30
2019-04-06T09:40:07.220Z,27.60
2019-04-06T09:42:35.738Z,23.00
2019-04-06T09:45:11.759Z,17.60
2019-04-06T09:47:59.925Z,15.30
2019-04-06T09:50:55.603Z,12.40
2019-04-06T09:53:41.826Z,8.30
2019-04-06T09:56:12.131Z,6.50
2019-04-06T09:58:42.202Z,6.20
2019-04-06T10:01:12.261Z,4.30
2019-04-06T10:03:42.616Z,2.50
2019-04-06T10:06:18.908Z,2.60
2019-04-06T10:08:49.053Z,2.50
2019-04-06T10:11:37.297Z,3.00
2019-04-06T10:14:23.274Z,1.00
2019-04-06T10:17:05.098Z,1.00
2019-04-06T10:19:35.396Z,1.00
2019-04-06T10:22:14.342Z,1.00
2019-04-06T10:24:56.925Z,1.00
2019-04-06T10:27:43.434Z,1.00
2019-04-06T10:30:13.829Z,1.00
2019-04-06T10:32:52.959Z,1.00
2019-04-06T10:35:35.407Z,1.00
2019-04-06T10:38:20.851Z,1.00
2019-04-06T10:41:03.396Z,1.00
2019-04-06T10:43:39.572Z,1.00
2019-04-06T10:46:09.867Z,1.00
2019-04-06T10:48:39.944Z,1.00
2019-04-06T10:51:13.366Z,1.00
2019-04-06T10:53:46.207Z,1.00
2019-04-06T10:56:33.244Z,1.00
2019-04-06T10:59:03.800Z,1.00
2019-04-06T11:01:50.205Z,1.00
2019-04-06T11:04:23.025Z,1.00
2019-04-06T11:06:53.209Z,1.00
2019-04-06T11:09:23.487Z,1.00
2019-04-06T11:11:54.024Z,1.00
2019-04-06T11:14:39.676Z,1.00
2019-04-06T11:17:15.544Z,1.00
2019-04-06T11:20:02.169Z,1.00
2019-04-06T11:22:44.310Z,1.90
2019-04-06T11:25:20.885Z,3.50
2019-04-06T11:27:51.181Z,1.30
2019-04-06T11:30:37.819Z,1.00
2019-04-06T11:33:27.194Z,1.00
2019-04-06T11:36:00.130Z,1.00
2019-04-06T11:38:42.492Z,1.00
2019-04-06T11:41:29.006Z,1.00
2019-04-06T11:44:15.319Z,1.00
2019-04-06T11:46:48.242Z,1.00
2019-04-06T11:49:33.253Z,1.00
2019-04-06T11:52:03.323Z,1.00
2019-04-06T11:54:49.593Z,1.00
2019-04-06T11:57:25.573Z,1.00
2019-04-06T11:59:58.599Z,1.00
2019-04-06T12:02:31.400Z,1.00
2019-04-06T12:05:01.804Z,1.00
2019-04-06T12:07:37.540Z,1.00
2019-04-06T12:10:10.881Z,1.00
2019-04-06T12:12:55.686Z,1.00
2019-04-06T12:15:33.735Z,1.00
2019-04-06T12:18:09.734Z,1.00
2019-04-06T12:20:39.809Z,1.00
2019-04-06T12:23:18.803Z,1.00
2019-04-06T12:26:00.695Z,1.00
2019-04-06T12:28:30.746Z,1.00
2019-04-06T12:31:17.522Z,1.00
2019-04-06T12:33:47.784Z,1.00
2019-04-06T12:36:17.842Z,1.00
2019-04-06T12:38:54.027Z,1.00
2019-04-06T12:41:36.181Z,1.00
2019-04-06T12:44:22.460Z,1.00
2019-04-06T12:46:55.270Z,1.00
2019-04-06T12:49:25.545Z,1.00
2019-04-06T12:52:04.977Z,1.00
2019-04-06T12:54:53.440Z,1.00
2019-04-06T12:57:23.763Z,1.00
2019-04-06T12:59:53.818Z,1.00
2019-04-06T13:02:40.027Z,1.00
2019-04-06T13:05:12.582Z,1.00
2019-04-06T13:07:57.908Z,1.00
2019-04-06T13:10:37.003Z,1.00
2019-04-06T13:13:10.101Z,1.00
2019-04-06T13:15:40.206Z,1.00
2019-04-06T13:18:16.103Z,1.00
2019-04-06T13:20:46.489Z,1.00
2019-04-06T13:23:16.543Z,1.00
2019-04-06T13:25:55.423Z,1.00
2019-04-06T13:28:41.967Z,1.00
2019-04-06T13:31:12.107Z,1.00
2019-04-06T13:33:47.658Z,1.00
2019-04-06T13:36:34.029Z,1.00
2019-04-06T13:39:12.910Z,1.00
2019-04-06T13:41:49.031Z,1.00
2019-04-06T13:44:19.410Z,1.00
2019-04-06T13:46:52.746Z,1.00
2019-04-06T13:49:23.167Z,1.00
2019-04-06T13:51:56.304Z,1.00
2019-04-06T13:54:32.149Z,1.00
2019-04-06T13:57:08.163Z,1.00
2019-04-06T13:59:54.375Z,1.00
2019-04-06T14:02:30.421Z,1.00
2019-04-06T14:05:13.024Z,1.00
2019-04-06T14:07:52.275Z,1.00
2019-04-06T14:10:28.026Z,1.00
2019-04-06T14:13:04.168Z,1.00
2019-04-06T14:15:37.201Z,1.00
2019-04-06T14:18:10.362Z,1.00
2019-04-06T14:20:49.379Z,1.00
2019-04-06T14:23:25.191Z,1.00
2019-04-06T14:26:11.268Z,1.00
2019-04-06T14:28:41.324Z,1.00
2019-04-06T14:31:29.987Z,1.00
2019-04-06T14:34:15.426Z,1.00
2019-04-06T14:36:46.007Z,1.00
2019-04-06T14:39:25.397Z,1.00
2019-04-06T14:42:13.927Z,1.00
2019-04-06T14:44:44.126Z,1.00
2019-04-06T14:47:19.922Z,1.00
2019-04-06T14:49:55.445Z,1.00
2019-04-06T14:52:40.494Z,1.00
2019-04-06T14:55:13.240Z,1.00
2019-04-06T14:58:01.540Z,1.00
2019-04-06T15:00:31.937Z,1.00
2019-04-06T15:03:02.625Z,1.00
2019-04-06T15:05:38.640Z,1.10
2019-04-06T15:08:23.919Z,2.10
2019-04-06T15:11:02.684Z,2.20
2019-04-06T15:13:33.235Z,2.70
2019-04-06T15:16:15.056Z,3.00
2019-04-06T15:18:48.063Z,2.80
2019-04-06T15:21:18.102Z,2.60
2019-04-06T15:23:48.161Z,2.90
2019-04-06T15:26:18.318Z,3.50
2019-04-06T15:28:48.624Z,3.10
2019-04-06T15:31:20.127Z,3.20
2019-04-06T15:34:08.512Z,3.10
2019-04-06T15:36:54.560Z,3.10
2019-04-06T15:39:27.899Z,4.50
2019-04-06T15:42:09.592Z,5.80
2019-04-06T15:44:51.580Z,6.10
2019-04-06T15:47:21.971Z,6.40
2019-04-06T15:49:57.962Z,7.80
2019-04-06T15:52:28.016Z,8.50
2019-04-06T15:55:04.140Z,9.90
2019-04-06T15:57:34.513Z,10.80
2019-04-06T16:00:09.026Z,11.50
2019-04-06T16:02:39.082Z,11.70
2019-04-06T16:05:21.458Z,11.80
2019-04-06T16:07:54.190Z,11.80
2019-04-06T16:10:29.739Z,11.50
2019-04-06T16:13:17.818Z,11.70
2019-04-06T16:16:00.360Z,11.90
2019-04-06T16:18:37.090Z,12.30
2019-04-06T16:21:23.467Z,12.60
2019-04-06T16:24:09.967Z,13.00
2019-04-06T16:26:56.235Z,13.40
2019-04-06T16:29:29.743Z,13.30
2019-04-06T16:32:12.372Z,13.60
2019-04-06T16:34:49.817Z,13.60
2019-04-06T16:37:31.686Z,13.60
2019-04-06T16:40:18.005Z,13.70
2019-04-06T16:42:48.254Z,14.00
2019-04-06T16:45:18.369Z,14.70
2019-04-06T16:47:48.437Z,15.10
2019-04-06T16:50:27.471Z,15.50
2019-04-06T16:52:57.901Z,15.80
2019-04-06T16:55:27.973Z,16.10
2019-04-06T16:57:58.383Z,16.60
2019-04-06T17:00:44.801Z,16.50
2019-04-06T17:03:24.028Z,16.90
2019-04-06T17:06:06.268Z,17.00
2019-04-06T17:08:39.082Z,17.20
2019-04-06T17:11:20.930Z,17.80
2019-04-06T17:13:53.682Z,17.60
2019-04-06T17:16:39.928Z,18.00
2019-04-06T17:19:13.269Z,18.60
2019-04-06T17:21:58.639Z,18.80
2019-04-06T17:24:34.477Z,19.10
2019-04-06T17:27:04.903Z,19.70
2019-04-06T17:29:41.598Z,19.70
2019-04-06T17:32:18.271Z,19.90
2019-04-06T17:34:57.761Z,20.00
2019-04-06T17:37:27.896Z,20.80
2019-04-06T17:40:16.053Z,20.60
2019-04-06T17:42:55.221Z,21.00
2019-04-06T17:45:41.570Z,21.50
2019-04-06T17:48:14.720Z,22.00
2019-04-06T17:50:44.787Z,22.40
2019-04-06T17:53:30.693Z,22.80
2019-04-06T17:56:01.166Z,23.20
2019-04-06T17:58:37.285Z,23.30
2019-04-06T18:01:10.204Z,23.40
2019-04-06T18:03:52.052Z,23.90
2019-04-06T18:06:24.557Z,24.20
2019-04-06T18:09:10.848Z,24.80
2019-04-06T18:11:55.781Z,24.90
2019-04-06T18:14:24.664Z,25.20
2019-04-06T18:16:53.057Z,25.60
2019-04-06T18:19:21.756Z,26.00
2019-04-06T18:21:50.226Z,26.40
2019-04-06T18:24:19.474Z,26.80
2019-04-06T18:26:48.520Z,27.30
2019-04-06T18:29:17.256Z,27.60
2019-04-06T18:31:50.200Z,28.30
2019-04-06T18:34:18.903Z,28.70
2019-04-06T18:36:54.995Z,28.90
2019-04-06T18:39:25.479Z,29.00
2019-04-06T18:41:53.963Z,29.60
2019-04-06T18:44:22.425Z,29.90
2019-04-06T18:46:50.846Z,29.90
2019-04-06T18:49:19.278Z,30.70
2019-04-06T18:51:47.870Z,31.20
2019-04-06T18:54:16.519Z,31.60
2019-04-06T18:56:44.947Z,31.80
2019-04-06T18:59:13.390Z,32.50
2019-04-06T19:01:42.561Z,32.60
2019-04-06T19:04:11.187Z,33.00
2019-04-06T19:06:39.602Z,33.20
2019-04-06T19:09:20.737Z,33.80
2019-04-06T19:11:39.177Z,34.20
2019-04-06T19:14:07.878Z,34.60
2019-04-06T19:16:36.662Z,35.00
2019-04-06T19:19:05.685Z,35.40
2019-04-06T19:21:34.968Z,35.90
2019-04-06T19:24:03.437Z,36.30
2019-04-06T19:26:32.236Z,36.60
2019-04-06T19:29:00.736Z,37.20
2019-04-06T19:31:29.981Z,38.10
2019-04-06T19:33:58.858Z,38.50
2019-04-06T19:36:27.444Z,39.50
2019-04-06T19:38:56.277Z,40.00
2019-04-06T19:41:24.974Z,40.70
2019-04-06T19:43:53.405Z,41.60
2019-04-06T19:46:21.991Z,42.30
2019-04-06T19:48:50.602Z,42.90
2019-04-06T19:51:19.014Z,42.80
2019-04-06T19:53:48.266Z,43.60
2019-04-06T19:56:16.987Z,44.00
2019-04-06T19:58:46.421Z,44.30
2019-04-06T20:01:14.948Z,44.80
2019-04-06T20:03:43.640Z,45.00
2019-04-06T20:06:12.169Z,45.30
2019-04-06T20:08:41.082Z,45.60
2019-04-06T20:11:09.889Z,45.90
2019-04-06T20:13:38.815Z,46.60
2019-04-06T20:16:07.406Z,47.30
2019-04-06T20:18:36.114Z,47.50
2019-04-06T20:21:05.281Z,47.80
2019-04-06T20:23:33.695Z,48.00
2019-04-06T20:26:02.408Z,48.50
2019-04-06T20:28:31.177Z,48.70
2019-04-06T20:31:00.042Z,49.20
2019-04-06T20:33:28.608Z,49.80
2019-04-06T20:35:57.084Z,49.90
2019-04-06T20:38:25.514Z,50.60
2019-04-06T20:40:54.167Z,51.00
2019-04-06T20:43:22.901Z,51.50
2019-04-06T20:45:51.337Z,51.60
2019-04-06T20:48:19.733Z,52.00
2019-04-06T20:50:48.553Z,52.30
2019-04-06T20:53:17.113Z,52.70
2019-04-06T20:55:46.145Z,52.90
2019-04-06T20:58:14.773Z,53.10
2019-04-06T21:00:43.666Z,53.30
2019-04-06T21:03:12.370Z,53.70
2019-04-06T21:05:40.794Z,54.40
2019-04-06T21:08:09.201Z,55.00
2019-04-06T21:10:37.651Z,55.60
2019-04-06T21:13:06.642Z,55.90
2019-04-06T21:15:35.588Z,56.30
2019-04-06T21:18:04.414Z,56.60
2019-04-06T21:20:33.089Z,57.10
2019-04-06T21:23:01.616Z,57.50
2019-04-06T21:25:30.099Z,58.00
2019-04-06T21:27:58.505Z,58.20
2019-04-06T21:30:26.933Z,58.50
2019-04-06T21:32:55.345Z,58.50
2019-04-06T21:35:23.989Z,59.40
2019-04-06T21:37:52.838Z,59.90
2019-04-06T21:40:21.484Z,60.40
2019-04-06T21:42:49.929Z,60.40
2019-04-06T21:45:18.600Z,61.20
2019-04-06T21:47:47.802Z,61.70
2019-04-06T21:50:17.201Z,62.10
2019-04-06T21:52:46.204Z,62.30
2019-04-06T21:55:15.080Z,62.30
2019-04-06T21:57:43.540Z,62.20
2019-04-06T22:00:14.498Z,61.90
2019-04-06T22:02:42.918Z,61.80
2019-04-06T22:05:11.418Z,62.00
2019-04-06T22:07:48.079Z,62.20
2019-04-06T22:10:11.839Z,62.30
2019-04-06T22:12:41.472Z,62.30
2019-04-06T22:15:12.438Z,62.40
2019-04-06T22:17:41.036Z,62.70
2019-04-06T22:20:09.830Z,62.60
2019-04-06T22:22:38.500Z,63.50
2019-04-06T22:25:07.477Z,63.80
2019-04-06T22:27:36.070Z,64.00
2019-04-06T22:30:09.670Z,64.10
2019-04-06T22:32:38.255Z,64.10
2019-04-06T22:35:07.861Z,64.20
2019-04-06T22:37:37.055Z,64.50
2019-04-06T22:40:06.481Z,64.20
2019-04-06T22:42:35.293Z,64.80
2019-04-06T22:45:07.087Z,65.10
2019-04-06T22:47:35.940Z,65.00
2019-04-06T22:50:07.023Z,65.30
2019-04-06T22:52:35.565Z,65.30
2019-04-06T22:55:06.182Z,65.30
2019-04-06T22:57:35.001Z,65.30
2019-04-06T23:00:04.563Z,65.40
2019-04-06T23:02:34.972Z,65.90
2019-04-06T23:05:05.886Z,65.90
2019-04-06T23:07:34.828Z,65.90
2019-04-06T23:10:04.275Z,66.40
2019-04-06T23:12:32.853Z,66.80
2019-04-06T23:15:01.665Z,67.90
2019-04-06T23:17:30.626Z,68.00
2019-04-06T23:19:59.088Z,68.40
2019-04-06T23:22:27.544Z,69.70
2019-04-06T23:24:56.422Z,70.30
2019-04-06T23:27:24.957Z,71.30
2019-04-06T23:29:53.610Z,72.30
2019-04-06T23:32:22.029Z,72.70
2019-04-06T23:34:58.775Z,73.00
2019-04-06T23:37:20.798Z,73.10
2019-04-06T23:39:49.501Z,73.60
2019-04-06T23:42:18.135Z,73.10
2019-04-06T23:44:46.837Z,73.50
2019-04-06T23:47:15.924Z,74.10
2019-04-06T23:49:45.038Z,74.70
2019-04-06T23:52:13.691Z,74.90
2019-04-06T23:54:42.152Z,75.10
2019-04-06T23:57:10.576Z,74.90
2019-04-06T23:59:39.567Z,75.10
